sensor_id;sensor_type;location;lat;lon;timestamp;P1;durP1;ratioP1;P2;durP2;ratioP2
26377;SDS011;14078;50.974;6.786;2024-03-06T00:00:00;32.47;;;15.68;;
26377;SDS011;14078;50.974;6.786;2024-03-06T00:02:28;32.47;;;14.95;;
26377;SDS011;14078;50.974;6.786;2024-03-06T00:04:55;35.40;;;15.98;;
26377;SDS011;14078;50.974;6.786;2024-03-06T00:07:21;40.10;;;16.08;;
26377;SDS011;14078;50.974;6.786;2024-03-06T00:09:48;33.15;;;15.60;;
26377;SDS011;14078;50.974;6.786;2024-03-06T00:12:16;39.38;;;17.95;;
26377;SDS011;14078;50.974;6.786;2024-03-06T00:14:43;38.10;;;16.40;;
26377;SDS011;14078;50.974;6.786;2024-03-06T00:17:10;38.97;;;16.85;;
26377;SDS011;14078;50.974;6.786;2024-03-06T00:19:36;35.85;;;16.65;;
26377;SDS011;14078;50.974;6.786;2024-03-06T00:22:03;30.63;;;15.73;;
26377;SDS011;14078;50.974;6.786;2024-03-06T00:24:30;40.08;;;16.98;;
26377;SDS011;14078;50.974;6.786;2024-03-06T00:26:58;50.20;;;22.10;;
26377;SDS011;14078;50.974;6.786;2024-03-06T00:29:26;43.93;;;22.03;;
26377;SDS011;14078;50.974;6.786;2024-03-06T00:31:53;48.05;;;24.33;;
26377;SDS011;14078;50.974;6.786;2024-03-06T00:34:19;43.75;;;21.25;;
26377;SDS011;14078;50.974;6.786;2024-03-06T00:36:46;41.33;;;20.35;;
26377;SDS011;14078;50.974;6.786;2024-03-06T00:39:13;34.75;;;17.38;;
26377;SDS011;14078;50.974;6.786;2024-03-06T00:41:40;35.58;;;15.90;;
26377;SDS011;14078;50.974;6.786;2024-03-06T00:44:07;41.55;;;15.07;;
26377;SDS011;14078;50.974;6.786;2024-03-06T00:46:35;39.20;;;17.02;;
26377;SDS011;14078;50.974;6.786;2024-03-06T00:49:02;38.50;;;16.75;;
26377;SDS011;14078;50.974;6.786;2024-03-06T00:51:28;34.70;;;15.95;;
26377;SDS011;14078;50.974;6.786;2024-03-06T00:53:55;39.80;;;16.77;;
26377;SDS011;14078;50.974;6.786;2024-03-06T00:56:22;38.03;;;16.33;;
26377;SDS011;14078;50.974;6.786;2024-03-06T00:58:49;41.50;;;20.77;;
26377;SDS011;14078;50.974;6.786;2024-03-06T01:01:15;44.78;;;21.45;;
26377;SDS011;14078;50.974;6.786;2024-03-06T01:03:43;43.05;;;21.90;;
26377;SDS011;14078;50.974;6.786;2024-03-06T01:06:10;47.83;;;22.63;;
26377;SDS011;14078;50.974;6.786;2024-03-06T01:08:37;45.33;;;22.42;;
26377;SDS011;14078;50.974;6.786;2024-03-06T01:11:03;47.45;;;21.92;;
26377;SDS011;14078;50.974;6.786;2024-03-06T01:13:30;41.97;;;20.00;;
26377;SDS011;14078;50.974;6.786;2024-03-06T01:15:57;39.22;;;19.98;;
26377;SDS011;14078;50.974;6.786;2024-03-06T01:18:24;36.30;;;19.30;;
26377;SDS011;14078;50.974;6.786;2024-03-06T01:20:52;36.75;;;18.73;;
26377;SDS011;14078;50.974;6.786;2024-03-06T01:23:18;30.90;;;16.98;;
26377;SDS011;14078;50.974;6.786;2024-03-06T01:25:45;36.95;;;18.80;;
26377;SDS011;14078;50.974;6.786;2024-03-06T01:28:12;32.95;;;17.88;;
26377;SDS011;14078;50.974;6.786;2024-03-06T01:30:40;40.47;;;19.30;;
26377;SDS011;14078;50.974;6.786;2024-03-06T01:33:06;38.43;;;20.47;;
26377;SDS011;14078;50.974;6.786;2024-03-06T01:35:33;35.72;;;19.15;;
26377;SDS011;14078;50.974;6.786;2024-03-06T01:38:01;37.40;;;19.92;;
26377;SDS011;14078;50.974;6.786;2024-03-06T01:40:28;41.55;;;21.15;;
26377;SDS011;14078;50.974;6.786;2024-03-06T01:42:55;43.60;;;22.00;;
26377;SDS011;14078;50.974;6.786;2024-03-06T01:45:21;46.65;;;21.08;;
26377;SDS011;14078;50.974;6.786;2024-03-06T01:47:48;42.95;;;22.30;;
26377;SDS011;14078;50.974;6.786;2024-03-06T01:50:15;45.45;;;21.88;;
26377;SDS011;14078;50.974;6.786;2024-03-06T01:52:42;42.90;;;21.67;;
26377;SDS011;14078;50.974;6.786;2024-03-06T01:55:11;44.33;;;21.25;;
26377;SDS011;14078;50.974;6.786;2024-03-06T01:57:40;43.47;;;21.20;;
26377;SDS011;14078;50.974;6.786;2024-03-06T02:00:08;45.03;;;22.88;;
26377;SDS011;14078;50.974;6.786;2024-03-06T02:02:39;46.17;;;21.55;;
26377;SDS011;14078;50.974;6.786;2024-03-06T02:05:07;43.78;;;22.48;;
26377;SDS011;14078;50.974;6.786;2024-03-06T02:07:34;46.28;;;23.60;;
26377;SDS011;14078;50.974;6.786;2024-03-06T02:10:04;46.28;;;21.88;;
26377;SDS011;14078;50.974;6.786;2024-03-06T02:12:33;45.75;;;21.98;;
26377;SDS011;14078;50.974;6.786;2024-03-06T02:15:00;44.28;;;22.58;;
26377;SDS011;14078;50.974;6.786;2024-03-06T02:17:28;42.50;;;22.25;;
26377;SDS011;14078;50.974;6.786;2024-03-06T02:19:55;42.97;;;22.10;;
26377;SDS011;14078;50.974;6.786;2024-03-06T02:22:24;43.47;;;22.35;;
26377;SDS011;14078;50.974;6.786;2024-03-06T02:24:51;34.05;;;18.25;;
26377;SDS011;14078;50.974;6.786;2024-03-06T02:27:18;29.63;;;16.05;;
26377;SDS011;14078;50.974;6.786;2024-03-06T02:29:44;24.58;;;13.70;;
26377;SDS011;14078;50.974;6.786;2024-03-06T02:32:12;33.30;;;15.27;;
26377;SDS011;14078;50.974;6.786;2024-03-06T02:34:38;28.35;;;12.43;;
26377;SDS011;14078;50.974;6.786;2024-03-06T02:37:05;29.48;;;12.93;;
26377;SDS011;14078;50.974;6.786;2024-03-06T02:39:33;30.07;;;13.87;;
26377;SDS011;14078;50.974;6.786;2024-03-06T02:42:00;30.35;;;13.50;;
26377;SDS011;14078;50.974;6.786;2024-03-06T02:44:28;31.30;;;13.82;;
26377;SDS011;14078;50.974;6.786;2024-03-06T02:46:54;30.13;;;14.02;;
26377;SDS011;14078;50.974;6.786;2024-03-06T02:49:21;31.92;;;14.63;;
26377;SDS011;14078;50.974;6.786;2024-03-06T02:51:48;36.10;;;15.03;;
26377;SDS011;14078;50.974;6.786;2024-03-06T02:54:14;35.50;;;13.77;;
26377;SDS011;14078;50.974;6.786;2024-03-06T02:56:42;35.20;;;14.45;;
26377;SDS011;14078;50.974;6.786;2024-03-06T02:59:09;34.72;;;15.20;;
26377;SDS011;14078;50.974;6.786;2024-03-06T03:01:36;29.55;;;15.90;;
26377;SDS011;14078;50.974;6.786;2024-03-06T03:04:04;30.10;;;14.88;;
26377;SDS011;14078;50.974;6.786;2024-03-06T03:06:31;27.80;;;15.55;;
26377;SDS011;14078;50.974;6.786;2024-03-06T03:08:58;29.38;;;16.10;;
26377;SDS011;14078;50.974;6.786;2024-03-06T03:11:25;30.90;;;16.45;;
26377;SDS011;14078;50.974;6.786;2024-03-06T03:13:53;25.97;;;14.50;;
26377;SDS011;14078;50.974;6.786;2024-03-06T03:16:19;27.98;;;15.07;;
26377;SDS011;14078;50.974;6.786;2024-03-06T03:18:46;26.45;;;15.07;;
26377;SDS011;14078;50.974;6.786;2024-03-06T03:21:13;23.63;;;14.38;;
26377;SDS011;14078;50.974;6.786;2024-03-06T03:23:40;16.88;;;11.60;;
26377;SDS011;14078;50.974;6.786;2024-03-06T03:26:07;16.80;;;11.27;;
26377;SDS011;14078;50.974;6.786;2024-03-06T03:28:37;16.70;;;11.83;;
26377;SDS011;14078;50.974;6.786;2024-03-06T03:31:05;17.15;;;11.57;;
26377;SDS011;14078;50.974;6.786;2024-03-06T03:33:33;17.20;;;11.97;;
26377;SDS011;14078;50.974;6.786;2024-03-06T03:36:01;17.10;;;11.90;;
26377;SDS011;14078;50.974;6.786;2024-03-06T03:38:28;16.10;;;10.98;;
26377;SDS011;14078;50.974;6.786;2024-03-06T03:40:54;18.67;;;11.95;;
26377;SDS011;14078;50.974;6.786;2024-03-06T03:43:21;21.33;;;12.77;;
26377;SDS011;14078;50.974;6.786;2024-03-06T03:45:48;22.83;;;13.23;;
26377;SDS011;14078;50.974;6.786;2024-03-06T03:48:16;19.83;;;12.57;;
26377;SDS011;14078;50.974;6.786;2024-03-06T03:50:42;17.05;;;11.73;;
26377;SDS011;14078;50.974;6.786;2024-03-06T03:53:09;16.52;;;12.00;;
26377;SDS011;14078;50.974;6.786;2024-03-06T03:55:36;20.85;;;12.88;;
26377;SDS011;14078;50.974;6.786;2024-03-06T03:58:03;23.55;;;13.73;;
26377;SDS011;14078;50.974;6.786;2024-03-06T04:00:31;23.43;;;13.93;;
26377;SDS011;14078;50.974;6.786;2024-03-06T04:02:58;23.45;;;13.50;;
26377;SDS011;14078;50.974;6.786;2024-03-06T04:05:26;21.85;;;13.77;;
26377;SDS011;14078;50.974;6.786;2024-03-06T04:07:53;26.52;;;14.32;;
26377;SDS011;14078;50.974;6.786;2024-03-06T04:10:20;23.30;;;14.23;;
26377;SDS011;14078;50.974;6.786;2024-03-06T04:12:46;22.90;;;14.52;;
26377;SDS011;14078;50.974;6.786;2024-03-06T04:15:14;23.38;;;12.93;;
26377;SDS011;14078;50.974;6.786;2024-03-06T04:17:41;22.60;;;13.70;;
26377;SDS011;14078;50.974;6.786;2024-03-06T04:20:08;25.40;;;14.63;;
26377;SDS011;14078;50.974;6.786;2024-03-06T04:22:38;23.33;;;14.63;;
26377;SDS011;14078;50.974;6.786;2024-03-06T04:25:04;24.90;;;15.18;;
26377;SDS011;14078;50.974;6.786;2024-03-06T04:27:31;25.20;;;15.20;;
26377;SDS011;14078;50.974;6.786;2024-03-06T04:29:58;27.02;;;14.93;;
26377;SDS011;14078;50.974;6.786;2024-03-06T04:32:25;25.95;;;14.70;;
26377;SDS011;14078;50.974;6.786;2024-03-06T04:34:52;23.23;;;13.68;;
26377;SDS011;14078;50.974;6.786;2024-03-06T04:37:18;24.65;;;14.07;;
26377;SDS011;14078;50.974;6.786;2024-03-06T04:39:46;23.73;;;13.10;;
26377;SDS011;14078;50.974;6.786;2024-03-06T04:42:14;23.17;;;13.10;;
26377;SDS011;14078;50.974;6.786;2024-03-06T04:44:40;22.38;;;12.63;;
26377;SDS011;14078;50.974;6.786;2024-03-06T04:47:08;20.52;;;11.93;;
26377;SDS011;14078;50.974;6.786;2024-03-06T04:49:34;18.67;;;10.57;;
26377;SDS011;14078;50.974;6.786;2024-03-06T04:52:01;20.80;;;10.65;;
26377;SDS011;14078;50.974;6.786;2024-03-06T04:54:28;16.70;;;10.43;;
26377;SDS011;14078;50.974;6.786;2024-03-06T04:56:55;15.88;;;10.13;;
26377;SDS011;14078;50.974;6.786;2024-03-06T04:59:22;15.93;;;9.88;;
26377;SDS011;14078;50.974;6.786;2024-03-06T05:01:48;15.45;;;8.85;;
26377;SDS011;14078;50.974;6.786;2024-03-06T05:04:15;11.80;;;8.32;;
26377;SDS011;14078;50.974;6.786;2024-03-06T05:06:42;11.63;;;7.30;;
26377;SDS011;14078;50.974;6.786;2024-03-06T05:09:08;11.38;;;7.50;;
26377;SDS011;14078;50.974;6.786;2024-03-06T05:11:36;11.68;;;7.30;;
26377;SDS011;14078;50.974;6.786;2024-03-06T05:14:04;11.60;;;7.03;;
26377;SDS011;14078;50.974;6.786;2024-03-06T05:16:32;9.48;;;5.97;;
26377;SDS011;14078;50.974;6.786;2024-03-06T05:18:59;9.75;;;5.78;;
26377;SDS011;14078;50.974;6.786;2024-03-06T05:21:26;7.22;;;5.35;;
26377;SDS011;14078;50.974;6.786;2024-03-06T05:23:53;6.13;;;4.65;;
26377;SDS011;14078;50.974;6.786;2024-03-06T05:26:20;6.65;;;5.07;;
26377;SDS011;14078;50.974;6.786;2024-03-06T05:28:46;7.32;;;5.10;;
26377;SDS011;14078;50.974;6.786;2024-03-06T05:31:18;6.43;;;5.07;;
26377;SDS011;14078;50.974;6.786;2024-03-06T05:33:47;9.07;;;6.03;;
26377;SDS011;14078;50.974;6.786;2024-03-06T05:36:14;9.40;;;6.00;;
26377;SDS011;14078;50.974;6.786;2024-03-06T05:38:42;7.57;;;5.50;;
26377;SDS011;14078;50.974;6.786;2024-03-06T05:41:09;9.15;;;6.57;;
26377;SDS011;14078;50.974;6.786;2024-03-06T05:43:36;8.33;;;5.23;;
26377;SDS011;14078;50.974;6.786;2024-03-06T05:46:02;8.23;;;5.28;;
26377;SDS011;14078;50.974;6.786;2024-03-06T05:48:31;6.85;;;4.90;;
26377;SDS011;14078;50.974;6.786;2024-03-06T05:50:58;6.90;;;5.15;;
26377;SDS011;14078;50.974;6.786;2024-03-06T05:53:25;9.25;;;5.40;;
26377;SDS011;14078;50.974;6.786;2024-03-06T05:55:51;10.13;;;5.25;;
26377;SDS011;14078;50.974;6.786;2024-03-06T05:58:19;9.30;;;6.03;;
26377;SDS011;14078;50.974;6.786;2024-03-06T06:00:46;7.65;;;5.72;;
26377;SDS011;14078;50.974;6.786;2024-03-06T06:03:13;8.98;;;5.40;;
26377;SDS011;14078;50.974;6.786;2024-03-06T06:05:41;6.55;;;5.60;;
26377;SDS011;14078;50.974;6.786;2024-03-06T06:08:08;9.93;;;6.60;;
26377;SDS011;14078;50.974;6.786;2024-03-06T06:10:35;9.15;;;5.90;;
26377;SDS011;14078;50.974;6.786;2024-03-06T06:13:01;7.25;;;5.50;;
26377;SDS011;14078;50.974;6.786;2024-03-06T06:15:29;10.80;;;5.85;;
26377;SDS011;14078;50.974;6.786;2024-03-06T06:17:56;7.70;;;6.18;;
26377;SDS011;14078;50.974;6.786;2024-03-06T06:20:23;8.98;;;6.07;;
26377;SDS011;14078;50.974;6.786;2024-03-06T06:22:51;7.40;;;5.25;;
26377;SDS011;14078;50.974;6.786;2024-03-06T06:25:18;8.93;;;5.63;;
26377;SDS011;14078;50.974;6.786;2024-03-06T06:27:45;8.90;;;5.45;;
26377;SDS011;14078;50.974;6.786;2024-03-06T06:30:13;7.82;;;5.68;;
26377;SDS011;14078;50.974;6.786;2024-03-06T06:32:40;6.60;;;5.32;;
26377;SDS011;14078;50.974;6.786;2024-03-06T06:35:07;5.90;;;4.97;;
26377;SDS011;14078;50.974;6.786;2024-03-06T06:37:36;8.68;;;5.75;;
26377;SDS011;14078;50.974;6.786;2024-03-06T06:40:05;7.57;;;5.20;;
26377;SDS011;14078;50.974;6.786;2024-03-06T06:42:33;8.20;;;4.95;;
26377;SDS011;14078;50.974;6.786;2024-03-06T06:45:00;7.32;;;5.32;;
26377;SDS011;14078;50.974;6.786;2024-03-06T06:47:27;7.20;;;5.05;;
26377;SDS011;14078;50.974;6.786;2024-03-06T06:49:54;5.93;;;5.03;;
26377;SDS011;14078;50.974;6.786;2024-03-06T06:52:21;11.32;;;4.95;;
26377;SDS011;14078;50.974;6.786;2024-03-06T06:54:48;5.78;;;4.30;;
26377;SDS011;14078;50.974;6.786;2024-03-06T06:57:17;9.60;;;5.70;;
26377;SDS011;14078;50.974;6.786;2024-03-06T06:59:44;6.55;;;4.72;;
26377;SDS011;14078;50.974;6.786;2024-03-06T07:02:11;5.93;;;4.90;;
26377;SDS011;14078;50.974;6.786;2024-03-06T07:04:38;8.85;;;5.00;;
26377;SDS011;14078;50.974;6.786;2024-03-06T07:07:04;7.50;;;4.47;;
26377;SDS011;14078;50.974;6.786;2024-03-06T07:09:31;4.55;;;3.80;;
26377;SDS011;14078;50.974;6.786;2024-03-06T07:11:59;6.80;;;3.90;;
26377;SDS011;14078;50.974;6.786;2024-03-06T07:14:27;5.63;;;3.83;;
26377;SDS011;14078;50.974;6.786;2024-03-06T07:16:53;6.25;;;4.68;;
26377;SDS011;14078;50.974;6.786;2024-03-06T07:19:20;8.48;;;4.78;;
26377;SDS011;14078;50.974;6.786;2024-03-06T07:21:47;6.35;;;4.82;;
26377;SDS011;14078;50.974;6.786;2024-03-06T07:24:13;8.80;;;5.50;;
26377;SDS011;14078;50.974;6.786;2024-03-06T07:26:40;7.00;;;5.38;;
26377;SDS011;14078;50.974;6.786;2024-03-06T07:29:07;8.80;;;5.57;;
26377;SDS011;14078;50.974;6.786;2024-03-06T07:31:41;8.07;;;4.68;;
26377;SDS011;14078;50.974;6.786;2024-03-06T07:34:07;7.07;;;4.53;;
26377;SDS011;14078;50.974;6.786;2024-03-06T07:36:34;6.55;;;4.88;;
26377;SDS011;14078;50.974;6.786;2024-03-06T07:39:01;9.03;;;5.67;;
26377;SDS011;14078;50.974;6.786;2024-03-06T07:41:29;7.57;;;4.78;;
26377;SDS011;14078;50.974;6.786;2024-03-06T07:43:57;7.82;;;5.00;;
26377;SDS011;14078;50.974;6.786;2024-03-06T07:46:24;7.47;;;5.30;;
26377;SDS011;14078;50.974;6.786;2024-03-06T07:48:52;8.32;;;5.10;;
26377;SDS011;14078;50.974;6.786;2024-03-06T07:51:19;7.72;;;5.25;;
26377;SDS011;14078;50.974;6.786;2024-03-06T07:53:46;6.10;;;4.95;;
26377;SDS011;14078;50.974;6.786;2024-03-06T07:56:14;7.13;;;4.60;;
26377;SDS011;14078;50.974;6.786;2024-03-06T07:58:41;6.93;;;4.63;;
26377;SDS011;14078;50.974;6.786;2024-03-06T08:01:07;5.57;;;4.53;;
26377;SDS011;14078;50.974;6.786;2024-03-06T08:03:34;6.03;;;5.20;;
26377;SDS011;14078;50.974;6.786;2024-03-06T08:06:02;8.05;;;5.75;;
26377;SDS011;14078;50.974;6.786;2024-03-06T08:08:29;10.10;;;5.75;;
26377;SDS011;14078;50.974;6.786;2024-03-06T08:10:56;8.32;;;5.57;;
26377;SDS011;14078;50.974;6.786;2024-03-06T08:13:23;7.88;;;6.57;;
26377;SDS011;14078;50.974;6.786;2024-03-06T08:15:50;7.57;;;5.90;;
26377;SDS011;14078;50.974;6.786;2024-03-06T08:18:18;9.60;;;6.25;;
26377;SDS011;14078;50.974;6.786;2024-03-06T08:20:44;7.53;;;6.63;;
26377;SDS011;14078;50.974;6.786;2024-03-06T08:23:12;10.85;;;6.80;;
26377;SDS011;14078;50.974;6.786;2024-03-06T08:25:39;10.18;;;6.30;;
26377;SDS011;14078;50.974;6.786;2024-03-06T08:28:06;9.80;;;5.93;;
26377;SDS011;14078;50.974;6.786;2024-03-06T08:30:32;7.40;;;6.32;;
26377;SDS011;14078;50.974;6.786;2024-03-06T08:32:59;7.83;;;5.87;;
26377;SDS011;14078;50.974;6.786;2024-03-06T08:35:26;8.00;;;5.70;;
26377;SDS011;14078;50.974;6.786;2024-03-06T08:37:53;9.13;;;5.63;;
26377;SDS011;14078;50.974;6.786;2024-03-06T08:40:21;6.68;;;5.60;;
26377;SDS011;14078;50.974;6.786;2024-03-06T08:42:48;7.40;;;5.45;;
26377;SDS011;14078;50.974;6.786;2024-03-06T08:45:15;7.75;;;5.70;;
26377;SDS011;14078;50.974;6.786;2024-03-06T08:47:42;7.70;;;5.93;;
26377;SDS011;14078;50.974;6.786;2024-03-06T08:50:09;7.68;;;5.43;;
26377;SDS011;14078;50.974;6.786;2024-03-06T08:52:36;8.77;;;5.53;;
26377;SDS011;14078;50.974;6.786;2024-03-06T08:55:04;6.18;;;5.07;;
26377;SDS011;14078;50.974;6.786;2024-03-06T08:57:33;8.60;;;5.60;;
26377;SDS011;14078;50.974;6.786;2024-03-06T09:00:00;8.37;;;5.87;;
26377;SDS011;14078;50.974;6.786;2024-03-06T09:02:26;7.35;;;6.10;;
26377;SDS011;14078;50.974;6.786;2024-03-06T09:04:53;7.93;;;5.28;;
26377;SDS011;14078;50.974;6.786;2024-03-06T09:07:20;6.78;;;5.03;;
26377;SDS011;14078;50.974;6.786;2024-03-06T09:09:48;8.20;;;5.90;;
26377;SDS011;14078;50.974;6.786;2024-03-06T09:12:15;8.73;;;6.18;;
26377;SDS011;14078;50.974;6.786;2024-03-06T09:14:43;8.68;;;5.65;;
26377;SDS011;14078;50.974;6.786;2024-03-06T09:17:10;7.38;;;6.13;;
26377;SDS011;14078;50.974;6.786;2024-03-06T09:19:38;8.35;;;6.35;;
26377;SDS011;14078;50.974;6.786;2024-03-06T09:22:04;8.50;;;6.20;;
26377;SDS011;14078;50.974;6.786;2024-03-06T09:24:31;9.68;;;6.90;;
26377;SDS011;14078;50.974;6.786;2024-03-06T09:26:58;12.82;;;6.97;;
26377;SDS011;14078;50.974;6.786;2024-03-06T09:29:25;8.90;;;6.60;;
26377;SDS011;14078;50.974;6.786;2024-03-06T09:31:53;13.27;;;8.50;;
26377;SDS011;14078;50.974;6.786;2024-03-06T09:34:20;15.70;;;8.30;;
26377;SDS011;14078;50.974;6.786;2024-03-06T09:36:49;18.50;;;10.20;;
26377;SDS011;14078;50.974;6.786;2024-03-06T09:39:17;15.77;;;9.68;;
26377;SDS011;14078;50.974;6.786;2024-03-06T09:41:45;17.70;;;9.68;;
26377;SDS011;14078;50.974;6.786;2024-03-06T09:44:13;18.25;;;10.80;;
26377;SDS011;14078;50.974;6.786;2024-03-06T09:46:41;20.17;;;11.60;;
26377;SDS011;14078;50.974;6.786;2024-03-06T09:49:10;21.05;;;11.80;;
26377;SDS011;14078;50.974;6.786;2024-03-06T09:51:39;23.98;;;12.55;;
26377;SDS011;14078;50.974;6.786;2024-03-06T09:54:10;21.60;;;11.80;;
26377;SDS011;14078;50.974;6.786;2024-03-06T09:56:40;30.55;;;13.18;;
26377;SDS011;14078;50.974;6.786;2024-03-06T09:59:07;30.23;;;15.50;;
26377;SDS011;14078;50.974;6.786;2024-03-06T10:01:34;25.55;;;13.02;;
26377;SDS011;14078;50.974;6.786;2024-03-06T10:04:20;27.55;;;14.65;;
26377;SDS011;14078;50.974;6.786;2024-03-06T10:06:47;25.00;;;14.50;;
26377;SDS011;14078;50.974;6.786;2024-03-06T10:09:16;28.58;;;14.63;;
26377;SDS011;14078;50.974;6.786;2024-03-06T10:11:43;27.13;;;14.23;;
26377;SDS011;14078;50.974;6.786;2024-03-06T10:14:10;27.98;;;14.27;;
26377;SDS011;14078;50.974;6.786;2024-03-06T10:16:38;28.33;;;15.13;;
26377;SDS011;14078;50.974;6.786;2024-03-06T10:19:17;30.25;;;16.60;;
26377;SDS011;14078;50.974;6.786;2024-03-06T10:21:46;30.90;;;16.58;;
26377;SDS011;14078;50.974;6.786;2024-03-06T10:24:16;30.42;;;16.58;;
26377;SDS011;14078;50.974;6.786;2024-03-06T10:26:45;30.93;;;16.50;;
26377;SDS011;14078;50.974;6.786;2024-03-06T10:29:13;30.48;;;16.05;;
26377;SDS011;14078;50.974;6.786;2024-03-06T10:31:41;25.90;;;15.32;;
26377;SDS011;14078;50.974;6.786;2024-03-06T10:34:13;24.90;;;14.35;;
26377;SDS011;14078;50.974;6.786;2024-03-06T10:36:41;25.35;;;14.35;;
26377;SDS011;14078;50.974;6.786;2024-03-06T10:39:08;26.30;;;14.25;;
26377;SDS011;14078;50.974;6.786;2024-03-06T10:41:38;25.23;;;14.50;;
26377;SDS011;14078;50.974;6.786;2024-03-06T10:44:06;22.60;;;13.77;;
26377;SDS011;14078;50.974;6.786;2024-03-06T10:46:38;24.20;;;14.13;;
26377;SDS011;14078;50.974;6.786;2024-03-06T10:49:09;21.85;;;13.48;;
26377;SDS011;14078;50.974;6.786;2024-03-06T10:51:36;20.77;;;13.32;;
26377;SDS011;14078;50.974;6.786;2024-03-06T10:54:08;24.98;;;13.90;;
26377;SDS011;14078;50.974;6.786;2024-03-06T10:56:35;19.73;;;12.32;;
26377;SDS011;14078;50.974;6.786;2024-03-06T10:59:06;20.55;;;11.80;;
26377;SDS011;14078;50.974;6.786;2024-03-06T11:01:36;23.45;;;11.80;;
26377;SDS011;14078;50.974;6.786;2024-03-06T11:06:31;20.02;;;11.38;;
26377;SDS011;14078;50.974;6.786;2024-03-06T11:08:59;24.38;;;12.07;;
26377;SDS011;14078;50.974;6.786;2024-03-06T11:11:27;22.45;;;12.80;;
26377;SDS011;14078;50.974;6.786;2024-03-06T11:13:54;21.55;;;12.38;;
26377;SDS011;14078;50.974;6.786;2024-03-06T11:16:26;22.92;;;13.50;;
26377;SDS011;14078;50.974;6.786;2024-03-06T11:19:04;28.48;;;14.40;;
26377;SDS011;14078;50.974;6.786;2024-03-06T11:21:32;31.50;;;16.33;;
26377;SDS011;14078;50.974;6.786;2024-03-06T11:27:00;31.13;;;14.70;;
26377;SDS011;14078;50.974;6.786;2024-03-06T11:32:35;24.65;;;15.00;;
26377;SDS011;14078;50.974;6.786;2024-03-06T11:35:02;29.75;;;15.20;;
26377;SDS011;14078;50.974;6.786;2024-03-06T11:37:33;27.50;;;13.85;;
26377;SDS011;14078;50.974;6.786;2024-03-06T11:40:00;24.97;;;14.30;;
26377;SDS011;14078;50.974;6.786;2024-03-06T11:42:33;34.97;;;16.80;;
26377;SDS011;14078;50.974;6.786;2024-03-06T11:45:11;29.98;;;16.27;;
26377;SDS011;14078;50.974;6.786;2024-03-06T11:50:21;27.70;;;16.20;;
26377;SDS011;14078;50.974;6.786;2024-03-06T11:52:48;22.90;;;13.98;;
26377;SDS011;14078;50.974;6.786;2024-03-06T11:55:15;25.58;;;14.63;;
26377;SDS011;14078;50.974;6.786;2024-03-06T11:57:43;23.25;;;14.30;;
26377;SDS011;14078;50.974;6.786;2024-03-06T12:00:13;16.48;;;9.75;;
26377;SDS011;14078;50.974;6.786;2024-03-06T12:02:40;12.13;;;8.93;;
26377;SDS011;14078;50.974;6.786;2024-03-06T12:05:07;13.40;;;8.73;;
26377;SDS011;14078;50.974;6.786;2024-03-06T12:07:44;14.07;;;9.10;;
26377;SDS011;14078;50.974;6.786;2024-03-06T12:10:11;17.85;;;11.95;;
26377;SDS011;14078;50.974;6.786;2024-03-06T12:12:40;14.98;;;10.77;;
26377;SDS011;14078;50.974;6.786;2024-03-06T12:15:10;18.67;;;10.60;;
26377;SDS011;14078;50.974;6.786;2024-03-06T12:17:41;18.73;;;11.05;;
26377;SDS011;14078;50.974;6.786;2024-03-06T12:20:11;16.10;;;9.98;;
26377;SDS011;14078;50.974;6.786;2024-03-06T12:22:43;16.20;;;10.63;;
26377;SDS011;14078;50.974;6.786;2024-03-06T12:25:10;14.13;;;10.52;;
26377;SDS011;14078;50.974;6.786;2024-03-06T12:27:37;14.32;;;9.68;;
26377;SDS011;14078;50.974;6.786;2024-03-06T12:30:07;20.23;;;10.23;;
26377;SDS011;14078;50.974;6.786;2024-03-06T12:32:38;12.77;;;8.75;;
26377;SDS011;14078;50.974;6.786;2024-03-06T12:35:05;10.82;;;8.45;;
26377;SDS011;14078;50.974;6.786;2024-03-06T12:37:32;11.73;;;8.10;;
26377;SDS011;14078;50.974;6.786;2024-03-06T12:39:59;10.43;;;7.55;;
26377;SDS011;14078;50.974;6.786;2024-03-06T12:42:26;10.45;;;7.85;;
26377;SDS011;14078;50.974;6.786;2024-03-06T12:44:53;10.52;;;7.75;;
26377;SDS011;14078;50.974;6.786;2024-03-06T12:47:21;8.43;;;7.35;;
26377;SDS011;14078;50.974;6.786;2024-03-06T12:49:48;13.35;;;8.48;;
26377;SDS011;14078;50.974;6.786;2024-03-06T12:52:16;12.60;;;9.07;;
26377;SDS011;14078;50.974;6.786;2024-03-06T12:54:43;20.35;;;11.05;;
26377;SDS011;14078;50.974;6.786;2024-03-06T12:57:09;13.85;;;10.07;;
26377;SDS011;14078;50.974;6.786;2024-03-06T12:59:36;15.23;;;9.80;;
26377;SDS011;14078;50.974;6.786;2024-03-06T13:02:03;16.05;;;10.10;;
26377;SDS011;14078;50.974;6.786;2024-03-06T13:04:31;14.10;;;9.48;;
26377;SDS011;14078;50.974;6.786;2024-03-06T13:06:58;10.25;;;8.98;;
26377;SDS011;14078;50.974;6.786;2024-03-06T13:09:24;15.57;;;9.95;;
26377;SDS011;14078;50.974;6.786;2024-03-06T13:11:51;12.98;;;9.15;;
26377;SDS011;14078;50.974;6.786;2024-03-06T13:14:19;16.38;;;10.38;;
26377;SDS011;14078;50.974;6.786;2024-03-06T13:16:46;15.95;;;9.80;;
26377;SDS011;14078;50.974;6.786;2024-03-06T13:19:12;13.18;;;9.10;;
26377;SDS011;14078;50.974;6.786;2024-03-06T13:21:40;11.25;;;8.57;;
26377;SDS011;14078;50.974;6.786;2024-03-06T13:24:07;12.15;;;9.80;;
26377;SDS011;14078;50.974;6.786;2024-03-06T13:26:33;17.23;;;11.02;;
26377;SDS011;14078;50.974;6.786;2024-03-06T13:29:02;18.17;;;11.30;;
26377;SDS011;14078;50.974;6.786;2024-03-06T13:31:29;22.80;;;12.95;;
26377;SDS011;14078;50.974;6.786;2024-03-06T13:33:58;19.63;;;13.18;;
26377;SDS011;14078;50.974;6.786;2024-03-06T13:36:25;21.55;;;12.55;;
26377;SDS011;14078;50.974;6.786;2024-03-06T13:38:54;20.90;;;12.23;;
26377;SDS011;14078;50.974;6.786;2024-03-06T13:41:21;24.83;;;12.60;;
26377;SDS011;14078;50.974;6.786;2024-03-06T13:43:48;20.42;;;12.50;;
26377;SDS011;14078;50.974;6.786;2024-03-06T13:46:15;21.02;;;12.73;;
26377;SDS011;14078;50.974;6.786;2024-03-06T13:48:41;27.25;;;12.20;;
26377;SDS011;14078;50.974;6.786;2024-03-06T13:51:08;18.90;;;10.80;;
26377;SDS011;14078;50.974;6.786;2024-03-06T13:53:35;16.02;;;10.82;;
26377;SDS011;14078;50.974;6.786;2024-03-06T13:56:03;12.55;;;9.65;;
26377;SDS011;14078;50.974;6.786;2024-03-06T13:58:30;15.75;;;9.60;;
26377;SDS011;14078;50.974;6.786;2024-03-06T14:00:56;13.18;;;8.30;;
26377;SDS011;14078;50.974;6.786;2024-03-06T14:03:23;14.77;;;8.90;;
26377;SDS011;14078;50.974;6.786;2024-03-06T14:05:50;12.38;;;9.40;;
26377;SDS011;14078;50.974;6.786;2024-03-06T14:08:17;13.07;;;9.43;;
26377;SDS011;14078;50.974;6.786;2024-03-06T14:10:44;12.60;;;8.95;;
26377;SDS011;14078;50.974;6.786;2024-03-06T14:13:12;15.45;;;10.23;;
26377;SDS011;14078;50.974;6.786;2024-03-06T14:15:39;13.05;;;9.60;;
26377;SDS011;14078;50.974;6.786;2024-03-06T14:18:05;17.65;;;11.15;;
26377;SDS011;14078;50.974;6.786;2024-03-06T14:20:32;16.95;;;10.90;;
26377;SDS011;14078;50.974;6.786;2024-03-06T14:22:59;17.50;;;10.88;;
26377;SDS011;14078;50.974;6.786;2024-03-06T14:25:25;16.98;;;10.98;;
26377;SDS011;14078;50.974;6.786;2024-03-06T14:27:52;14.98;;;10.38;;
26377;SDS011;14078;50.974;6.786;2024-03-06T14:30:20;14.27;;;10.27;;
26377;SDS011;14078;50.974;6.786;2024-03-06T14:32:47;16.00;;;10.50;;
26377;SDS011;14078;50.974;6.786;2024-03-06T14:35:14;13.18;;;10.63;;
26377;SDS011;14078;50.974;6.786;2024-03-06T14:37:41;10.40;;;9.13;;
26377;SDS011;14078;50.974;6.786;2024-03-06T14:40:08;13.02;;;9.55;;
26377;SDS011;14078;50.974;6.786;2024-03-06T14:42:35;11.60;;;8.85;;